地図

経路データ

SID SEASON NUMBER BASIN SUBBASIN NAME ISO_TIME NATURE LAT LON WMO_WIND WMO_PRES WMO_AGENCY TRACK_TYPE DIST2LAND LANDFALL IFLAG USA_AGENCY USA_ATCF_ID USA_LAT USA_LON USA_RECORD USA_STATUS USA_WIND USA_PRES USA_SSHS USA_R34_NE USA_R34_SE USA_R34_SW USA_R34_NW USA_R50_NE USA_R50_SE USA_R50_SW USA_R50_NW USA_R64_NE USA_R64_SE USA_R64_SW USA_R64_NW USA_POCI USA_ROCI USA_RMW USA_EYE TOKYO_LAT TOKYO_LON TOKYO_GRADE TOKYO_WIND TOKYO_PRES TOKYO_R50_DIR TOKYO_R50_LONG TOKYO_R50_SHORT TOKYO_R30_DIR TOKYO_R30_LONG TOKYO_R30_SHORT TOKYO_LAND CMA_LAT CMA_LON CMA_CAT CMA_WIND CMA_PRES HKO_LAT HKO_LON HKO_CAT HKO_WIND HKO_PRES NEWDELHI_LAT NEWDELHI_LON NEWDELHI_GRADE NEWDELHI_WIND NEWDELHI_PRES NEWDELHI_CI NEWDELHI_DP NEWDELHI_POCI REUNION_LAT REUNION_LON REUNION_TYPE REUNION_WIND REUNION_PRES REUNION_TNUM REUNION_CI REUNION_RMW REUNION_R34_NE REUNION_R34_SE REUNION_R34_SW REUNION_R34_NW REUNION_R50_NE REUNION_R50_SE REUNION_R50_SW REUNION_R50_NW REUNION_R64_NE REUNION_R64_SE REUNION_R64_SW REUNION_R64_NW BOM_LAT BOM_LON BOM_TYPE BOM_WIND BOM_PRES BOM_TNUM BOM_CI BOM_RMW BOM_R34_NE BOM_R34_SE BOM_R34_SW BOM_R34_NW BOM_R50_NE BOM_R50_SE BOM_R50_SW BOM_R50_NW BOM_R64_NE BOM_R64_SE BOM_R64_SW BOM_R64_NW BOM_ROCI BOM_POCI BOM_EYE BOM_POS_METHOD BOM_PRES_METHOD NADI_LAT NADI_LON NADI_CAT NADI_WIND NADI_PRES WELLINGTON_LAT WELLINGTON_LON WELLINGTON_WIND WELLINGTON_PRES DS824_LAT DS824_LON DS824_STAGE DS824_WIND DS824_PRES TD9636_LAT TD9636_LON TD9636_STAGE TD9636_WIND TD9636_PRES TD9635_LAT TD9635_LON TD9635_WIND TD9635_PRES TD9635_ROCI NEUMANN_LAT NEUMANN_LON NEUMANN_CLASS NEUMANN_WIND NEUMANN_PRES MLC_LAT MLC_LON MLC_CLASS MLC_WIND MLC_PRES USA_GUST BOM_GUST BOM_GUST_PER REUNION_GUST REUNION_GUST_PER USA_SEAHGT USA_SEARAD_NE USA_SEARAD_SE USA_SEARAD_SW USA_SEARAD_NW STORM_SPEED STORM_DIR
1962259N17086 1962 79 NI BB NOT_NAMED 1962-09-15 18:00:00 TS 17.2000 86.3000 main 253 238 O________O____ jtwc_io IO081962 17.2000 86.3000 -1 17.2000 86.3000 TC 3 285
1962259N17086 1962 79 NI BB NOT_NAMED 1962-09-15 21:00:00 TS 17.2425 86.1350 main 238 222 P________P____ IO081962 17.2425 86.1350 -1 17.2425 86.1350 TC 3 289
1962259N17086 1962 79 NI BB NOT_NAMED 1962-09-16 00:00:00 TS 17.3000 86.0000 main 222 207 O________O____ jtwc_io IO081962 17.3000 86.0000 -1 17.3000 86.0000 TC 25 3 304
1962259N17086 1962 79 NI BB NOT_NAMED 1962-09-16 03:00:00 TS 17.3866 85.9066 main 207 192 P________PO___ IO081962 17.3850 85.9074 -1 17.3850 85.9074 TC 25 17.4000 85.9000 1 3 316
1962259N17086 1962 79 NI BB NOT_NAMED 1962-09-16 06:00:00 TS 17.5060 85.7876 main 192 169 O________OP___ jtwc_io IO081962 17.5000 85.8000 -1 17.5000 85.8000 TC 25 17.5298 85.7377 1 4 312
1962259N17086 1962 79 NI BB NOT_NAMED 1962-09-16 09:00:00 TS 17.6521 85.5947 main 161 138 P________PP___ IO081962 17.6501 85.6001 -1 17.6501 85.6001 TC 25 17.6576 85.5803 1 5 309
1962259N17086 1962 79 NI BB NOT_NAMED 1962-09-16 12:00:00 TS 17.7939 85.4109 main 138 123 O________OP___ jtwc_io IO081962 17.8000 85.4000 -1 17.8000 85.4000 TC 25 17.7816 85.4327 1 4 311
1962259N17086 1962 79 NI BB NOT_NAMED 1962-09-16 15:00:00 TS 17.9000 85.2900 main 123 107 P________PO___ IO081962 17.9000 85.2849 -1 17.9000 85.2849 TC 25 17.9000 85.3000 1 3 316
1962259N17086 1962 79 NI BB NOT_NAMED 1962-09-16 18:00:00 TS 18.0043 85.1952 main 107 92 O________OP___ jtwc_io IO081962 18.0000 85.2000 -1 18.0000 85.2000 TC 25 18.0128 85.1855 1 3 322
1962259N17086 1962 79 NI BB NOT_NAMED 1962-09-16 21:00:00 TS 18.1375 85.0949 main 92 69 P________PP___ IO081962 18.1425 85.1000 -1 18.1425 85.1000 TC 25 18.1274 85.0848 1 3 326
1962259N17086 1962 79 NI BB NOT_NAMED 1962-09-17 00:00:00 TS 18.2845 84.9972 main 69 53 O________OP___ jtwc_io IO081962 18.3000 85.0000 -1 18.3000 85.0000 TC 25 18.2534 84.9917 1 3 327
1962259N17086 1962 79 NI BB NOT_NAMED 1962-09-17 03:00:00 TS 18.4283 84.9000 main 53 30 P________PO___ IO081962 18.4425 84.9000 -1 18.4425 84.9000 TC 25 18.4000 84.9000 1 4 329
1962259N17086 1962 79 NI BB NOT_NAMED 1962-09-17 06:00:00 TS 18.5928 84.8027 main 30 10 O________OP___ jtwc_io IO081962 18.6000 84.8000 -1 18.6000 84.8000 TC 25 18.5784 84.8080 1 4 333
1962259N17086 1962 79 NI BB NOT_NAMED 1962-09-17 09:00:00 TS 18.7875 84.7049 main 10 0 P________PP___ IO081962 18.7925 84.7000 -1 18.7925 84.7000 TC 25 18.7774 84.7149 1 4 335
1962259N17086 1962 79 NI BB NOT_NAMED 1962-09-17 12:00:00 TS 18.9959 84.6048 main 0 0 O________OP___ jtwc_io IO081962 19.0000 84.6000 -1 19.0000 84.6000 TC 25 18.9878 84.6143 1 5 335
1962259N17086 1962 79 NI BB NOT_NAMED 1962-09-17 15:00:00 TS 19.2000 84.5000 main 0 0 P________PO___ IO081962 19.2000 84.5000 -1 19.2000 84.5000 TC 25 19.2000 84.5000 1 4 336
1962259N17086 1962 79 NI BB NOT_NAMED 1962-09-17 18:00:00 TS 19.3942 84.4188 main 0 0 O________OP___ jtwc_io IO081962 19.4000 84.4000 -1 19.4000 84.4000 TC 25 19.3826 84.4565 1 4 341
1962259N17086 1962 79 NI BB NOT_NAMED 1962-09-17 21:00:00 TS 19.5892 84.3633 main 0 0 P________PP___ IO081962 19.5998 84.3523 -1 19.5998 84.3523 TC 25 19.5680 84.3853 1 4 333
1962259N17086 1962 79 NI BB NOT_NAMED 1962-09-18 00:00:00 TS 19.7898 84.2072 main 0 0 O________OP___ jtwc_io IO081962 19.8000 84.2000 -1 19.8000 84.2000 TC 25 19.7694 84.2216 1 6 310
1962259N17086 1962 79 NI BB NOT_NAMED 1962-09-18 03:00:00 TS 19.9848 83.8647 main 0 0 P________PO___ IO081962 19.9772 83.8471 -1 19.9772 83.8471 TC 25 20.0000 83.9000 1 10 297
1962259N17086 1962 79 NI BB NOT_NAMED 1962-09-18 06:00:00 TS 20.2270 83.3111 main 0 0 O________OP___ jtwc_io IO081962 20.2000 83.3000 -1 20.2000 83.3000 TC 25 20.2810 83.3334 1 13 296
1962259N17086 1962 79 NI BB NOT_NAMED 1962-09-18 09:00:00 TS 20.5526 82.5999 main 0 0 P________PP___ IO081962 20.5352 82.5953 -1 20.5352 82.5953 TC 25 20.5873 82.6091 1 16 295
1962259N17086 1962 79 NI BB NOT_NAMED 1962-09-18 12:00:00 TS 20.8999 81.8017 main 0 0 O________OP___ jtwc_io IO081962 20.9000 81.8000 -1 20.9000 81.8000 TC 25 20.8997 81.8050 1 16 294
1962259N17086 1962 79 NI BB NOT_NAMED 1962-09-18 15:00:00 TS 21.2098 81.0282 main 0 0 P________PO___ IO081962 21.2148 81.0423 -1 21.2148 81.0423 TC 25 21.2000 81.0000 1 15 293
1962259N17086 1962 79 NI BB NOT_NAMED 1962-09-18 18:00:00 TS 21.4923 80.2833 main 0 0 O________OP___ jtwc_io IO081962 21.5000 80.3000 -1 21.5000 80.3000 TC 25 21.4768 80.2498 1 15 292
1962259N17086 1962 79 NI BB NOT_NAMED 1962-09-18 21:00:00 TS 21.7560 79.5492 main 0 0 P________PP___ IO081962 21.7649 79.5624 -1 21.7649 79.5624 TC 25 21.7382 79.5228 1 14 291
1962259N17086 1962 79 NI BB NOT_NAMED 1962-09-19 00:00:00 TS 21.9934 78.8865 main 0 0 O________OP___ jtwc_io IO081962 22.0000 78.9000 -1 22.0000 78.9000 TC 25 21.9803 78.8594 1 12 292
1962259N17086 1962 79 NI BB NOT_NAMED 1962-09-19 03:00:00 TS 22.2098 78.3266 main 0 0 P________PO___ IO081962 22.2148 78.3398 -1 22.2148 78.3398 TC 25 22.2000 78.3000 1 10 293
1962259N17086 1962 79 NI AS NOT_NAMED 1962-09-19 06:00:00 TS 22.3916 77.8929 main 0 0 O________OP___ jtwc_io IO081962 22.4000 77.9000 -1 22.4000 77.9000 TC 25 22.3747 77.8786 1 8 295
1962259N17086 1962 79 NI AS NOT_NAMED 1962-09-19 09:00:00 TS 22.5443 77.5576 main 0 0 P________PP___ IO081962 22.5498 77.5548 -1 22.5498 77.5548 TC 25 22.5332 77.5633 1 6 300
1962259N17086 1962 79 NI AS NOT_NAMED 1962-09-19 12:00:00 TS 22.7001 77.3055 main 0 0 O________OP___ jtwc_io IO081962 22.7000 77.3000 -1 22.7000 77.3000 TC 25 22.7001 77.3164 1 5 309
1962259N17086 1962 79 NI AS NOT_NAMED 1962-09-19 15:00:00 TS 22.8849 77.0949 main 0 0 P________PO___ IO081962 22.8774 77.0923 -1 22.8774 77.0923 TC 25 22.9000 77.1000 1 6 316
1962259N17086 1962 79 NI AS NOT_NAMED 1962-09-19 18:00:00 TS 23.1118 76.8777 main 0 0 O________OP___ jtwc_io IO081962 23.1000 76.9000 -1 23.1000 76.9000 TC 25 23.1355 76.8331 1 7 319
1962259N17086 1962 79 NI AS NOT_NAMED 1962-09-19 21:00:00 TS 23.3833 76.6300 main 0 0 P________PP___ IO081962 23.3700 76.6500 -1 23.3700 76.6500 TC 25 23.4099 76.5900 1 7 323
1962259N17086 1962 79 NI AS NOT_NAMED 1962-09-20 00:00:00 TS 23.7098 76.3923 main 0 0 O________OP___ jtwc_io IO081962 23.7000 76.4000 -1 23.7000 76.4000 TC 25 23.7294 76.3768 1 8 329
1962259N17086 1962 79 NI AS NOT_NAMED 1962-09-20 03:00:00 TS 24.0750 76.1850 main 0 0 P________PO___ IO081962 24.0625 76.1775 -1 24.0625 76.1775 TC 25 24.1000 76.2000 1 9 337
1962259N17086 1962 79 NI AS NOT_NAMED 1962-09-20 06:00:00 TS 24.5163 76.0093 main 0 0 O________OP___ jtwc_io IO081962 24.5000 76.0000 -1 24.5000 76.0000 TC 25 24.5489 76.0280 1 10 344
1962259N17086 1962 79 NI AS NOT_NAMED 1962-09-20 09:00:00 TS 25.0524 75.8737 main 0 0 P________PP___ IO081962 25.0575 75.8626 -1 25.0575 75.8626 TC 25 25.0423 75.8958 1 11 350
1962259N17086 1962 79 NI AS NOT_NAMED 1962-09-20 12:00:00 TS 25.5799 75.8052 main 0 0 O________OP___ jtwc_io IO081962 25.6000 75.8000 -1 25.6000 75.8000 TC 25 25.5396 75.8157 1 9 356
1962259N17086 1962 79 NI AS NOT_NAMED 1962-09-20 15:00:00 TS 25.9916 75.8132 main 0 0 P________PO___ IO081962 25.9875 75.8198 -1 25.9875 75.8198 TC 25 26.0000 75.8000 1 7 5
1962259N17086 1962 79 NI AS NOT_NAMED 1962-09-20 18:00:00 TS 26.3145 75.8813 main 0 0 O________OP___ jtwc_io IO081962 26.3000 75.9000 -1 26.3000 75.9000 TC 25 26.3436 75.8439 1 6 13
1962259N17086 1962 79 NI AS NOT_NAMED 1962-09-20 21:00:00 TS 26.6116 75.9693 main 0 0 P________PP___ IO081962 26.5925 75.9777 -1 26.5925 75.9777 TC 25 26.6499 75.9527 1 6 18
1962259N17086 1962 79 NI AS NOT_NAMED 1962-09-21 00:00:00 TS 26.9187 76.1034 main 0 0 O________OP___ jtwc_io IO081962 26.9000 76.1000 -1 26.9000 76.1000 TC 25 26.9561 76.1101 1 7 23
1962259N17086 1962 79 NI AS NOT_NAMED 1962-09-21 03:00:00 TS 27.2800 76.2900 main 0 0 P________PO___ IO081962 27.2700 76.2850 -1 27.2700 76.2850 TC 25 27.3000 76.3000 1 9 24
1962259N17086 1962 79 NI AS NOT_NAMED 1962-09-21 06:00:00 TS 27.7038 76.5034 main 0 0 O________OP___ jtwc_io IO081962 27.7000 76.5000 -1 27.7000 76.5000 TC 25 27.7096 76.5086 1 10 23
1962259N17086 1962 79 NI AS NOT_NAMED 1962-09-21 09:00:00 TS 28.1809 76.7157 main 0 0 P________PP___ IO081962 28.1850 76.7047 -1 28.1850 76.7047 TC 25 28.1754 76.7304 1 11 21
1962259N17086 1962 79 NI AS NOT_NAMED 1962-09-21 12:00:00 TS 28.6893 76.9311 main 0 0 O________OP___ jtwc_io IO081962 28.7000 76.9000 -1 28.7000 76.9000 TC 25 28.6785 76.9621 1 11 23
1962259N17086 1962 79 NI AS NOT_NAMED 1962-09-21 15:00:00 NR 29.2000 77.2000 main 0 __________O___ IO081962 -1 TC 29.2000 77.2000 1 11 25

IBTrACS Databaseについて

本データベースは、米国NOAAが公開する1842年以降の世界の熱帯低気圧のベストトラックデータアーカイブInternational Best Track Archive for Climate Stewardship (IBTrACS)を、ウェブで閲覧しやすい形式に変換したものです。

最終更新日:2021-12-01